Time;durP1;ratioP1;P1;durP2;ratioP2;P2;SDS_P1;SDS_P2;PMS_P1;PMS_P2;Temp;Humidity;BMP_temperature;BMP_pressure;BME280_temperature;BME280_humidity;BME280_pressure;Samples;Min_cycle;Max_cycle;Signal;HPM_P1;HPM_P2
2023/04/08 00:02:12;;;;;;;3.67;3.15;;;21.60;38.90;;;;;;5055440;28;20112;-48
2023/04/08 00:04:38;;;;;;;4.00;3.30;;;21.70;38.90;;;;;;5054636;28;20463;-53
2023/04/08 00:07:04;;;;;;;5.13;3.40;;;21.60;38.90;;;;;;5051472;28;20436;-48
2023/04/08 00:09:30;;;;;;;3.55;2.90;;;21.70;38.90;;;;;;5051187;28;20037;-48
2023/04/08 00:11:56;;;;;;;3.42;2.97;;;21.60;38.90;;;;;;5054045;28;20025;-47
2023/04/08 00:14:22;;;;;;;3.95;3.17;;;21.60;38.90;;;;;;5054621;28;20033;-47
2023/04/08 00:16:48;;;;;;;3.45;2.42;;;21.60;38.80;;;;;;5053749;28;20053;-52
2023/04/08 00:19:14;;;;;;;3.63;2.83;;;21.60;38.80;;;;;;5054316;28;20432;-48
2023/04/08 00:21:39;;;;;;;3.33;2.85;;;21.60;38.80;;;;;;5054447;28;20029;-47
2023/04/08 00:24:06;;;;;;;3.67;3.10;;;21.60;38.80;;;;;;5053834;28;20360;-47
2023/04/08 00:26:31;;;;;;;3.85;2.97;;;21.60;38.90;;;;;;5054151;28;20033;-47
2023/04/08 00:28:57;;;;;;;3.60;2.80;;;21.60;38.90;;;;;;5049614;28;20048;-50
2023/04/08 00:31:24;;;;;;;3.90;2.67;;;21.50;39.50;;;;;;5053085;28;20025;-50
2023/04/08 00:33:50;;;;;;;4.22;2.88;;;21.50;38.80;;;;;;5052636;28;20116;-50
2023/04/08 00:36:16;;;;;;;4.10;3.20;;;21.50;38.70;;;;;;5053488;28;20112;-48
2023/04/08 00:38:42;;;;;;;2.97;2.42;;;21.50;38.60;;;;;;5053319;28;20465;-49
2023/04/08 00:41:08;;;;;;;3.67;2.60;;;21.50;38.60;;;;;;5054145;28;20059;-51
2023/04/08 00:43:34;;;;;;;2.88;2.53;;;21.50;38.60;;;;;;5065086;28;20051;-48
2023/04/08 00:46:00;;;;;;;4.28;2.58;;;21.50;38.50;;;;;;5055760;28;20033;-49
2023/04/08 00:48:25;;;;;;;3.13;2.47;;;21.50;38.50;;;;;;5055003;28;20036;-53
2023/04/08 00:50:51;;;;;;;3.22;2.33;;;21.50;38.40;;;;;;5053216;28;20364;-48
2023/04/08 00:53:18;;;;;;;2.90;2.45;;;21.50;38.40;;;;;;5040094;28;20040;-47
2023/04/08 00:55:44;;;;;;;2.42;2.05;;;21.50;38.30;;;;;;5054203;28;20033;-52
2023/04/08 00:58:11;;;;;;;2.80;2.30;;;21.50;38.20;;;;;;5068832;28;20044;-50
2023/04/08 01:00:41;;;;;;;3.15;2.47;;;21.40;38.10;;;;;;5058471;28;20032;-52
2023/04/08 01:03:37;;;;;;;3.47;2.10;;;21.40;38.10;;;;;;5059358;28;20448;-54
2023/04/08 01:06:21;;;;;;;2.63;2.22;;;21.50;38.10;;;;;;5043067;28;20025;-52
2023/04/08 01:08:50;;;;;;;3.22;2.20;;;21.40;38.00;;;;;;5070910;28;20048;-51
2023/04/08 01:11:17;;;;;;;2.30;2.00;;;21.40;38.00;;;;;;5050946;28;20033;-50
2023/04/08 01:13:45;;;;;;;2.40;1.88;;;21.40;38.00;;;;;;5045006;28;20125;-49
2023/04/08 01:16:14;;;;;;;2.83;2.22;;;21.40;38.00;;;;;;5054605;28;20437;-45
2023/04/08 01:18:42;;;;;;;2.10;1.88;;;21.40;38.00;;;;;;5069567;28;20036;-49
2023/04/08 01:21:09;;;;;;;1.98;1.77;;;21.40;38.00;;;;;;5056127;28;20044;-47
2023/04/08 01:23:48;;;;;;;2.53;2.10;;;21.40;38.00;;;;;;5053113;28;20118;-45
2023/04/08 01:26:22;;;;;;;2.28;1.92;;;21.40;37.90;;;;;;5055077;28;20033;-49
2023/04/08 01:28:51;;;;;;;2.15;1.80;;;21.40;37.90;;;;;;5053428;28;20052;-50
2023/04/08 01:31:18;;;;;;;2.35;1.92;;;21.40;37.90;;;;;;5054196;28;20029;-50
2023/04/08 01:33:45;;;;;;;2.55;2.00;;;21.30;37.90;;;;;;5052539;28;20456;-47
2023/04/08 01:36:11;;;;;;;2.70;1.73;;;21.40;37.90;;;;;;5055116;28;20432;-47
2023/04/08 01:38:38;;;;;;;2.42;1.90;;;21.30;37.80;;;;;;5054027;28;20040;-46
2023/04/08 01:41:04;;;;;;;1.83;1.65;;;21.30;37.80;;;;;;5055240;28;20040;-48
2023/04/08 01:43:32;;;;;;;2.15;1.83;;;21.30;37.80;;;;;;5036851;28;20053;-47
2023/04/08 01:45:59;;;;;;;2.30;1.80;;;21.30;37.70;;;;;;5034833;28;20143;-47
2023/04/08 01:48:27;;;;;;;2.55;1.77;;;21.30;37.70;;;;;;5050678;28;20038;-51
2023/04/08 01:50:54;;;;;;;1.65;1.40;;;21.30;37.60;;;;;;5034940;28;20107;-51
2023/04/08 01:53:20;;;;;;;1.63;1.42;;;21.30;37.50;;;;;;5041159;28;20166;-46
2023/04/08 01:55:51;;;;;;;2.10;1.70;;;21.30;37.50;;;;;;5054495;28;20479;-51
2023/04/08 01:58:20;;;;;;;1.98;1.50;;;21.30;37.40;;;;;;5052653;28;20039;-48
2023/04/08 02:00:47;;;;;;;2.13;1.60;;;21.30;37.40;;;;;;5054586;28;20028;-49
2023/04/08 02:03:16;;;;;;;2.42;1.65;;;21.20;37.30;;;;;;5052189;28;20040;-45
2023/04/08 02:05:44;;;;;;;1.50;1.30;;;21.20;37.30;;;;;;5052947;28;20126;-51
2023/04/08 02:08:11;;;;;;;1.42;1.30;;;21.30;37.20;;;;;;5064286;28;20091;-46
2023/04/08 02:10:37;;;;;;;1.80;1.30;;;21.20;37.20;;;;;;5069243;28;20108;-49
2023/04/08 02:13:04;;;;;;;1.85;1.33;;;21.20;37.10;;;;;;5039385;28;20033;-48
2023/04/08 02:15:35;;;;;;;1.58;1.20;;;21.20;37.10;;;;;;5058872;28;20057;-46
2023/04/08 02:18:21;;;;;;;1.45;1.10;;;21.20;37.10;;;;;;5068259;28;20051;-46
2023/04/08 02:20:56;;;;;;;2.35;1.10;;;21.20;37.00;;;;;;5077782;28;20040;-47
2023/04/08 02:23:28;;;;;;;1.58;1.27;;;21.20;37.00;;;;;;5062087;28;20365;-49
2023/04/08 02:25:55;;;;;;;1.38;1.23;;;21.20;37.00;;;;;;5057077;28;20043;-48
2023/04/08 02:28:27;;;;;;;1.30;1.20;;;21.20;36.90;;;;;;5054136;28;20056;-46
2023/04/08 02:30:54;;;;;;;1.00;0.90;;;21.20;36.90;;;;;;5038290;28;20108;-49
2023/04/08 02:33:21;;;;;;;1.35;1.17;;;21.20;36.90;;;;;;5044747;28;20033;-52
2023/04/08 02:35:53;;;;;;;1.35;1.10;;;21.20;36.80;;;;;;5037745;28;20449;-53
2023/04/08 02:38:20;;;;;;;1.35;1.10;;;21.20;36.80;;;;;;5037147;28;20061;-53
2023/04/08 02:40:50;;;;;;;2.05;1.33;;;21.20;36.80;;;;;;5036999;28;20029;-51
2023/04/08 02:43:16;;;;;;;1.50;1.17;;;21.20;36.80;;;;;;5043549;28;20096;-47
2023/04/08 02:45:42;;;;;;;1.38;1.10;;;21.10;36.70;;;;;;5057482;28;20144;-51
2023/04/08 02:48:09;;;;;;;1.85;1.30;;;21.10;36.60;;;;;;5056461;28;20499;-49
2023/04/08 02:50:35;;;;;;;1.20;1.08;;;21.10;36.60;;;;;;5055639;28;20029;-46
2023/04/08 02:53:01;;;;;;;1.35;1.20;;;21.10;36.60;;;;;;5046068;28;20029;-52
2023/04/08 02:55:29;;;;;;;1.60;1.20;;;21.10;36.50;;;;;;5057066;28;20326;-47
2023/04/08 02:57:54;;;;;;;1.77;1.50;;;21.10;36.50;;;;;;5057861;28;20040;-51
2023/04/08 03:00:20;;;;;;;1.83;1.20;;;21.10;36.50;;;;;;5041879;28;20022;-49
2023/04/08 03:02:46;;;;;;;1.35;1.00;;;21.10;36.50;;;;;;5041248;28;20040;-49
2023/04/08 03:05:12;;;;;;;1.90;1.40;;;21.10;36.40;;;;;;5057577;28;20174;-47
2023/04/08 03:07:38;;;;;;;1.52;1.13;;;21.00;36.40;;;;;;5056551;28;20107;-50
2023/04/08 03:10:05;;;;;;;1.52;1.10;;;21.10;36.40;;;;;;5055893;28;20517;-54
2023/04/08 03:12:31;;;;;;;1.65;1.40;;;21.10;36.30;;;;;;5057631;28;20349;-48
2023/04/08 03:14:57;;;;;;;1.25;1.15;;;21.10;36.30;;;;;;5057684;28;20060;-45
2023/04/08 03:17:23;;;;;;;1.25;1.15;;;21.00;36.20;;;;;;5061851;28;20098;-48
2023/04/08 03:19:49;;;;;;;1.42;1.27;;;21.00;36.20;;;;;;5052636;28;20033;-48
2023/04/08 03:22:15;;;;;;;1.88;1.60;;;21.00;36.30;;;;;;5036934;28;20034;-47
2023/04/08 03:24:41;;;;;;;1.40;1.15;;;21.00;36.40;;;;;;5057141;28;22085;-48
2023/04/08 03:27:07;;;;;;;1.30;1.20;;;21.00;36.30;;;;;;5070801;28;20028;-46
2023/04/08 03:29:33;;;;;;;2.00;1.35;;;21.00;36.90;;;;;;5056037;28;20036;-48
2023/04/08 03:31:59;;;;;;;1.58;1.30;;;21.00;36.30;;;;;;5056906;28;20428;-48
2023/04/08 03:34:24;;;;;;;1.50;1.30;;;21.00;36.20;;;;;;5057134;28;20041;-47
2023/04/08 03:36:50;;;;;;;1.58;1.40;;;21.00;36.20;;;;;;5038752;28;20041;-48
2023/04/08 03:39:16;;;;;;;1.55;1.33;;;21.00;36.10;;;;;;5042915;28;20351;-50
2023/04/08 03:41:42;;;;;;;1.35;1.13;;;20.90;36.00;;;;;;5060351;28;20028;-50
2023/04/08 03:44:08;;;;;;;1.67;1.50;;;21.00;36.00;;;;;;5060259;28;20404;-49
2023/04/08 03:46:34;;;;;;;1.77;1.40;;;21.00;36.00;;;;;;5056474;28;20116;-47
2023/04/08 03:49:00;;;;;;;1.55;1.30;;;21.00;36.00;;;;;;5055589;28;20036;-46
2023/04/08 03:51:27;;;;;;;2.03;1.45;;;21.00;36.00;;;;;;5053585;28;20129;-52
2023/04/08 03:53:53;;;;;;;1.20;1.10;;;21.00;35.90;;;;;;5051600;28;20107;-50
2023/04/08 03:56:19;;;;;;;2.22;1.60;;;21.00;35.90;;;;;;5055810;28;20104;-51
2023/04/08 03:58:45;;;;;;;1.90;1.60;;;20.90;35.90;;;;;;5052084;28;20025;-49
2023/04/08 04:01:11;;;;;;;2.17;1.45;;;21.00;35.90;;;;;;5036724;28;20034;-48
2023/04/08 04:03:36;;;;;;;1.77;1.67;;;20.90;35.80;;;;;;5049406;28;20115;-47
2023/04/08 04:06:02;;;;;;;1.40;1.30;;;20.90;35.70;;;;;;5056365;28;20094;-51
2023/04/08 04:08:28;;;;;;;1.45;1.30;;;20.90;35.70;;;;;;5056993;28;20120;-48
2023/04/08 04:10:54;;;;;;;2.17;1.60;;;20.90;35.70;;;;;;5036414;28;20029;-50
2023/04/08 04:13:20;;;;;;;1.70;1.45;;;20.90;35.70;;;;;;5046338;28;20029;-50
2023/04/08 04:15:46;;;;;;;2.10;1.70;;;20.90;35.70;;;;;;5056391;28;20029;-46
2023/04/08 04:18:12;;;;;;;1.75;1.65;;;20.90;35.60;;;;;;5060988;28;20502;-50
2023/04/08 04:20:41;;;;;;;2.35;1.75;;;20.90;35.60;;;;;;5036536;28;20057;-49
2023/04/08 04:23:08;;;;;;;1.85;1.65;;;20.90;35.60;;;;;;5043764;28;20037;-50
2023/04/08 04:25:34;;;;;;;2.03;1.80;;;20.90;35.60;;;;;;5056002;28;20056;-47
2023/04/08 04:28:01;;;;;;;2.22;1.60;;;20.90;35.60;;;;;;5054371;28;20036;-51
2023/04/08 04:30:27;;;;;;;2.33;1.85;;;20.90;35.70;;;;;;5036174;28;20322;-47
2023/04/08 04:32:53;;;;;;;1.83;1.45;;;20.90;35.70;;;;;;5051786;28;20037;-50
2023/04/08 04:35:19;;;;;;;2.03;1.73;;;20.80;35.70;;;;;;5055532;28;20033;-52
2023/04/08 04:37:46;;;;;;;1.98;1.77;;;20.90;35.80;;;;;;5056316;28;20029;-48
2023/04/08 04:40:12;;;;;;;1.92;1.73;;;20.80;35.70;;;;;;5055366;28;20102;-47
2023/04/08 04:42:38;;;;;;;2.33;1.90;;;20.80;35.60;;;;;;5061481;28;20040;-50
2023/04/08 04:45:04;;;;;;;1.83;1.65;;;20.80;35.60;;;;;;5055739;28;20049;-48
2023/04/08 04:47:31;;;;;;;2.20;1.67;;;20.80;35.60;;;;;;5045243;28;20029;-49
2023/04/08 04:49:57;;;;;;;2.20;1.80;;;20.80;35.50;;;;;;5051308;28;20049;-53
2023/04/08 04:52:23;;;;;;;2.17;1.65;;;20.80;35.40;;;;;;5046444;28;20403;-49
2023/04/08 04:54:48;;;;;;;2.22;1.80;;;20.80;35.40;;;;;;5055392;28;20037;-52
2023/04/08 04:57:14;;;;;;;2.53;1.90;;;20.80;35.40;;;;;;5063866;28;20123;-50
2023/04/08 04:59:40;;;;;;;2.30;1.95;;;20.80;35.30;;;;;;5059583;28;20033;-46
2023/04/08 05:02:06;;;;;;;3.10;2.30;;;20.80;35.30;;;;;;5053949;28;20033;-47
2023/04/08 05:04:32;;;;;;;2.08;1.80;;;20.80;35.20;;;;;;5036118;28;20033;-46
2023/04/08 05:07:01;;;;;;;4.18;1.90;;;20.80;35.20;;;;;;5036595;28;20043;-50
2023/04/08 05:09:28;;;;;;;2.45;1.80;;;20.70;35.20;;;;;;5053806;28;20036;-54
2023/04/08 05:11:55;;;;;;;3.33;2.08;;;20.70;35.10;;;;;;5055557;28;20033;-51
2023/04/08 05:14:20;;;;;;;2.38;1.88;;;20.70;35.10;;;;;;5044165;28;20056;-53
2023/04/08 05:16:46;;;;;;;2.10;1.73;;;20.70;35.00;;;;;;5052002;28;20134;-46
2023/04/08 05:19:12;;;;;;;2.47;2.10;;;20.70;35.00;;;;;;5064402;28;20095;-47
2023/04/08 05:21:38;;;;;;;3.83;1.90;;;20.70;35.00;;;;;;5055035;28;20033;-46
2023/04/08 05:24:04;;;;;;;2.50;1.80;;;20.70;35.00;;;;;;5054914;28;20029;-48
2023/04/08 05:26:30;;;;;;;2.65;2.00;;;20.70;34.90;;;;;;5055150;28;20029;-47
2023/04/08 05:28:56;;;;;;;2.30;2.10;;;20.70;34.90;;;;;;5053502;28;20072;-46
2023/04/08 05:31:22;;;;;;;2.05;1.80;;;20.70;34.90;;;;;;5054420;28;20452;-51
2023/04/08 05:33:48;;;;;;;2.28;1.90;;;20.70;34.90;;;;;;5060285;28;20091;-49
2023/04/08 05:36:14;;;;;;;2.10;1.90;;;20.70;34.90;;;;;;5037115;28;20341;-47
2023/04/08 05:38:42;;;;;;;3.25;1.98;;;20.70;34.90;;;;;;5034816;28;20112;-48
2023/04/08 05:41:07;;;;;;;1.90;1.70;;;20.70;34.80;;;;;;5035025;28;20025;-48
2023/04/08 05:43:34;;;;;;;2.00;1.80;;;20.70;34.80;;;;;;5041906;28;20322;-48
2023/04/08 05:46:04;;;;;;;1.75;1.63;;;20.70;34.80;;;;;;5053697;28;20021;-50
2023/04/08 05:48:30;;;;;;;2.13;1.63;;;20.70;35.00;;;;;;5074671;28;20103;-49
2023/04/08 05:50:56;;;;;;;1.80;1.60;;;20.70;35.10;;;;;;5074622;28;20032;-45
2023/04/08 05:53:23;;;;;;;3.85;1.92;;;20.70;35.00;;;;;;5054835;28;20021;-46
2023/04/08 05:55:49;;;;;;;1.80;1.50;;;20.70;35.00;;;;;;5053053;28;20057;-51
2023/04/08 05:58:15;;;;;;;1.63;1.52;;;20.70;34.90;;;;;;5054006;28;20092;-48
2023/04/08 06:00:40;;;;;;;2.40;1.70;;;20.70;34.90;;;;;;5054754;28;20512;-50
2023/04/08 06:03:06;;;;;;;2.28;1.60;;;20.70;34.80;;;;;;5053391;28;20025;-48
2023/04/08 06:05:32;;;;;;;2.15;1.73;;;20.70;34.80;;;;;;5045872;28;20384;-49
2023/04/08 06:07:58;;;;;;;2.05;1.80;;;20.70;34.80;;;;;;5044896;28;20071;-46
2023/04/08 06:10:24;;;;;;;2.28;1.70;;;20.70;34.80;;;;;;5068669;28;20441;-50
2023/04/08 06:12:50;;;;;;;1.95;1.55;;;20.70;34.80;;;;;;5069114;28;20159;-51
2023/04/08 06:15:15;;;;;;;1.98;1.60;;;20.70;34.80;;;;;;5045663;28;20041;-50
2023/04/08 06:17:41;;;;;;;2.38;1.58;;;20.70;34.80;;;;;;5045023;28;20036;-51
2023/04/08 06:20:10;;;;;;;2.00;1.75;;;20.70;34.80;;;;;;5035664;28;20025;-50
2023/04/08 06:22:37;;;;;;;1.88;1.58;;;20.70;34.90;;;;;;5045033;28;20029;-49
2023/04/08 06:25:05;;;;;;;2.45;1.75;;;20.70;34.90;;;;;;5053009;28;20033;-48
2023/04/08 06:27:31;;;;;;;1.67;1.58;;;20.70;34.90;;;;;;5054711;28;20049;-51
2023/04/08 06:29:58;;;;;;;1.42;1.27;;;20.60;34.80;;;;;;5052361;28;20041;-51
2023/04/08 06:32:23;;;;;;;1.95;1.50;;;20.70;34.90;;;;;;5056107;28;20039;-49
2023/04/08 06:34:49;;;;;;;1.75;1.50;;;20.70;34.90;;;;;;5054387;28;20033;-51
2023/04/08 06:37:15;;;;;;;2.55;1.70;;;20.70;35.00;;;;;;5045604;28;20033;-49
2023/04/08 06:39:41;;;;;;;2.40;1.60;;;20.70;35.00;;;;;;5051894;28;20487;-46
2023/04/08 06:42:06;;;;;;;1.88;1.60;;;20.70;35.00;;;;;;5046739;28;20091;-48
2023/04/08 06:44:45;;;;;;;2.67;1.60;;;20.70;35.00;;;;;;5049229;28;20115;-51
2023/04/08 06:47:11;;;;;;;2.33;1.38;;;20.70;35.00;;;;;;5041545;28;20028;-50
2023/04/08 06:49:37;;;;;;;2.15;1.70;;;20.70;35.00;;;;;;5052493;28;20033;-49
2023/04/08 06:52:02;;;;;;;2.00;1.50;;;20.70;35.00;;;;;;5050088;28;20029;-46
2023/04/08 06:54:28;;;;;;;2.47;1.80;;;20.70;35.00;;;;;;5052436;28;20029;-49
2023/04/08 06:56:54;;;;;;;2.65;1.98;;;20.70;35.10;;;;;;5043803;28;20025;-49
2023/04/08 06:59:20;;;;;;;2.75;1.98;;;20.70;35.90;;;;;;5062423;28;20052;-47
2023/04/08 07:01:46;;;;;;;2.90;2.25;;;20.70;35.50;;;;;;5061108;28;20460;-49
2023/04/08 07:04:12;;;;;;;3.88;2.42;;;20.70;35.70;;;;;;5053381;28;20025;-46
2023/04/08 07:06:37;;;;;;;4.43;3.50;;;20.70;35.80;;;;;;5055321;28;20051;-52
2023/04/08 07:09:03;;;;;;;5.10;3.70;;;20.80;36.10;;;;;;5047025;28;20037;-46
2023/04/08 07:11:29;;;;;;;4.68;3.80;;;20.80;36.20;;;;;;5055270;28;20028;-52
2023/04/08 07:13:55;;;;;;;4.50;4.00;;;20.80;36.20;;;;;;5054808;28;20093;-56
2023/04/08 07:16:21;;;;;;;5.13;4.40;;;20.90;36.30;;;;;;5055900;28;20021;-53
2023/04/08 07:18:47;;;;;;;5.90;4.70;;;20.90;36.20;;;;;;5049437;28;20029;-50
2023/04/08 07:21:13;;;;;;;6.22;5.13;;;20.90;36.20;;;;;;5054263;28;20040;-48
2023/04/08 07:23:39;;;;;;;7.15;5.30;;;21.00;36.30;;;;;;5046639;28;20040;-48
2023/04/08 07:26:05;;;;;;;5.95;4.70;;;21.10;36.30;;;;;;5052886;28;20025;-45
2023/04/08 07:28:31;;;;;;;5.47;4.75;;;21.20;36.30;;;;;;5056726;28;20028;-46
2023/04/08 07:31:14;;;;;;;6.55;4.50;;;21.20;36.30;;;;;;5057535;28;20032;-46
2023/04/08 07:33:42;;;;;;;4.90;4.03;;;21.30;36.30;;;;;;5046165;28;20037;-48
2023/04/08 07:36:10;;;;;;;4.97;4.10;;;21.30;36.30;;;;;;5058334;28;20028;-49
2023/04/08 07:38:40;;;;;;;5.93;4.45;;;21.40;36.20;;;;;;5074747;28;20116;-49
2023/04/08 07:41:07;;;;;;;7.05;5.38;;;21.50;36.30;;;;;;5074082;28;20023;-46
2023/04/08 07:43:35;;;;;;;6.95;5.20;;;21.50;36.10;;;;;;5065957;28;20052;-49
2023/04/08 07:46:02;;;;;;;5.32;4.57;;;21.60;36.10;;;;;;5049265;28;20104;-49
2023/04/08 07:48:30;;;;;;;5.03;4.40;;;21.70;36.10;;;;;;5047217;28;20140;-50
2023/04/08 07:50:57;;;;;;;5.47;4.20;;;21.70;35.90;;;;;;5055991;28;20060;-49
2023/04/08 07:53:25;;;;;;;5.60;4.57;;;21.80;35.90;;;;;;5049213;28;20122;-50
2023/04/08 07:55:52;;;;;;;5.13;4.25;;;21.80;35.80;;;;;;5051936;28;20071;-47
2023/04/08 07:58:19;;;;;;;6.03;4.85;;;21.90;35.80;;;;;;5055944;28;20031;-50
2023/04/08 08:00:46;;;;;;;5.55;4.60;;;22.00;35.90;;;;;;5055659;28;20136;-50
2023/04/08 08:03:14;;;;;;;5.20;4.35;;;22.00;35.70;;;;;;5053579;28;20021;-48
2023/04/08 08:05:41;;;;;;;4.93;3.80;;;22.10;35.70;;;;;;5045158;28;20032;-48
2023/04/08 08:08:06;;;;;;;5.25;4.22;;;22.10;35.60;;;;;;5068961;28;20032;-47
2023/04/08 08:10:32;;;;;;;4.97;3.72;;;22.20;35.60;;;;;;5077249;28;20037;-46
2023/04/08 08:12:58;;;;;;;5.25;4.00;;;22.20;35.40;;;;;;5076045;28;20120;-45
2023/04/08 08:15:24;;;;;;;7.38;4.40;;;22.30;35.40;;;;;;5058025;28;20531;-49
2023/04/08 08:17:50;;;;;;;5.22;4.20;;;22.30;35.20;;;;;;5053136;28;20102;-48
2023/04/08 08:20:16;;;;;;;4.88;4.05;;;22.30;35.10;;;;;;5053302;28;20039;-50
2023/04/08 08:22:44;;;;;;;5.43;4.43;;;22.40;35.20;;;;;;5053473;28;20071;-45
2023/04/08 08:25:10;;;;;;;5.88;4.35;;;22.40;35.10;;;;;;5055725;28;20040;-51
2023/04/08 08:27:35;;;;;;;5.57;4.55;;;22.40;35.10;;;;;;5051418;28;20436;-49
2023/04/08 08:30:03;;;;;;;6.40;5.15;;;22.40;35.00;;;;;;5055489;28;20033;-49
2023/04/08 08:32:29;;;;;;;6.55;4.90;;;22.40;35.00;;;;;;5054032;28;20025;-51
2023/04/08 08:34:55;;;;;;;6.93;5.50;;;22.40;35.00;;;;;;5055429;28;20033;-46
2023/04/08 08:37:20;;;;;;;6.57;5.55;;;22.50;35.30;;;;;;5053731;28;20028;-49
2023/04/08 08:39:46;;;;;;;7.03;5.95;;;22.40;35.30;;;;;;5054238;28;20044;-47
2023/04/08 08:42:22;;;;;;;6.07;5.30;;;22.40;35.30;;;;;;5054126;28;20025;-49
2023/04/08 08:44:49;;;;;;;8.25;5.97;;;22.40;35.10;;;;;;5065326;28;20060;-47
2023/04/08 08:47:18;;;;;;;6.82;5.60;;;22.40;35.10;;;;;;5051815;28;20033;-51
2023/04/08 08:49:44;;;;;;;6.95;5.45;;;22.40;35.00;;;;;;5053887;28;20056;-49
2023/04/08 08:52:14;;;;;;;7.00;5.78;;;22.40;34.80;;;;;;5045810;28;20473;-51
2023/04/08 08:54:40;;;;;;;7.05;5.45;;;22.40;34.70;;;;;;5046651;28;20071;-47
2023/04/08 08:57:17;;;;;;;7.18;5.43;;;22.40;34.70;;;;;;5046065;28;20108;-47
2023/04/08 08:59:47;;;;;;;6.13;4.88;;;22.40;34.60;;;;;;5054011;28;20033;-48
2023/04/08 09:02:30;;;;;;;5.85;4.85;;;22.40;34.60;;;;;;5055022;28;20021;-46
2023/04/08 09:05:03;;;;;;;5.60;4.78;;;22.40;34.50;;;;;;5037933;28;20140;-49
2023/04/08 09:07:39;;;;;;;6.32;4.70;;;22.40;34.50;;;;;;5052533;28;20158;-49
2023/04/08 09:10:05;;;;;;;5.63;4.60;;;22.30;34.40;;;;;;5055313;28;20037;-49
2023/04/08 09:12:31;;;;;;;5.65;4.20;;;22.30;34.40;;;;;;5055241;28;20440;-46
2023/04/08 09:15:08;;;;;;;5.82;4.55;;;22.30;34.40;;;;;;5053906;28;20036;-52
2023/04/08 09:17:36;;;;;;;7.38;4.28;;;22.30;34.40;;;;;;5049650;28;20039;-53
2023/04/08 09:20:10;;;;;;;5.15;4.22;;;22.30;34.40;;;;;;5059523;28;20024;-53
2023/04/08 09:22:56;;;;;;;5.10;4.43;;;22.30;34.40;;;;;;5054707;28;20066;-51
2023/04/08 09:25:29;;;;;;;4.90;4.03;;;22.30;34.40;;;;;;5044117;28;20052;-50
2023/04/08 09:27:55;;;;;;;4.57;3.92;;;22.30;34.50;;;;;;5054311;28;20380;-47
2023/04/08 09:30:23;;;;;;;5.18;4.15;;;22.20;34.50;;;;;;5051706;28;20037;-47
2023/04/08 09:32:50;;;;;;;4.20;3.78;;;22.20;34.50;;;;;;5055453;28;20047;-51
2023/04/08 09:35:17;;;;;;;4.88;3.92;;;22.20;34.50;;;;;;5054121;28;20040;-52
2023/04/08 09:37:43;;;;;;;6.85;6.15;;;22.20;34.50;;;;;;5050196;28;20025;-48
2023/04/08 09:40:10;;;;;;;11.05;8.60;;;22.20;34.70;;;;;;5047377;28;20074;-50
2023/04/08 09:42:40;;;;;;;14.25;12.32;;;22.20;35.10;;;;;;5051482;28;20046;-53
2023/04/08 09:45:10;;;;;;;17.88;15.98;;;22.20;35.50;;;;;;5051177;28;20048;-49
2023/04/08 09:48:18;;;;;;;18.73;16.33;;;22.20;35.90;;;;;;5053747;28;20025;-55
2023/04/08 09:50:49;;;;;;;20.35;18.15;;;22.30;36.20;;;;;;5022932;28;20068;-52
2023/04/08 09:53:31;;;;;;;20.30;18.10;;;22.30;36.30;;;;;;5044708;28;20130;-51
2023/04/08 09:55:59;;;;;;;20.40;17.70;;;22.40;36.40;;;;;;5051657;28;20028;-54
2023/04/08 09:58:28;;;;;;;20.40;17.73;;;22.50;36.30;;;;;;5060221;28;20093;-51
2023/04/08 10:00:54;;;;;;;20.75;18.33;;;22.60;36.30;;;;;;5046225;28;20032;-51
2023/04/08 10:03:48;;;;;;;19.63;17.30;;;22.70;36.20;;;;;;5046791;28;20048;-52
2023/04/08 10:06:15;;;;;;;18.55;15.88;;;22.70;35.90;;;;;;5051738;28;20348;-46
2023/04/08 10:08:42;;;;;;;17.77;15.90;;;22.80;35.70;;;;;;5053383;28;20048;-47
2023/04/08 10:11:09;;;;;;;16.80;14.88;;;22.80;35.40;;;;;;5045406;28;20033;-48
2023/04/08 10:13:35;;;;;;;17.25;14.73;;;22.90;35.20;;;;;;5055857;28;20041;-52
2023/04/08 10:16:26;;;;;;;17.23;14.95;;;22.90;35.00;;;;;;5054206;28;20081;-55
2023/04/08 10:18:56;;;;;;;15.02;13.20;;;22.90;35.50;;;;;;5046191;28;20135;-50
2023/04/08 10:21:31;;;;;;;13.95;12.15;;;22.90;34.60;;;;;;5045906;28;20025;-49
2023/04/08 10:23:58;;;;;;;13.57;12.05;;;23.00;34.50;;;;;;5046203;28;20033;-51
2023/04/08 10:26:33;;;;;;;18.48;15.48;;;23.00;34.40;;;;;;5040823;28;20029;-52
2023/04/08 10:29:17;;;;;;;18.48;16.15;;;23.00;34.70;;;;;;5038784;28;20059;-53
2023/04/08 10:31:48;;;;;;;18.13;15.80;;;23.10;35.10;;;;;;5046784;28;20033;-49
2023/04/08 10:34:18;;;;;;;19.27;17.02;;;23.10;35.10;;;;;;5047176;28;20044;-52
2023/04/08 10:36:45;;;;;;;17.17;15.30;;;23.20;35.00;;;;;;5046276;28;20068;-51
2023/04/08 10:39:15;;;;;;;17.00;14.70;;;23.20;34.70;;;;;;5048831;28;20147;-53
2023/04/08 10:41:45;;;;;;;16.15;14.35;;;23.20;34.40;;;;;;5042970;28;20044;-51
2023/04/08 10:44:27;;;;;;;16.33;13.93;;;23.30;34.20;;;;;;5045352;28;20041;-50
2023/04/08 10:46:54;;;;;;;15.35;13.05;;;23.30;33.90;;;;;;5046514;28;20754;-49
2023/04/08 10:49:20;;;;;;;14.13;12.50;;;23.40;33.70;;;;;;5050443;28;20052;-52
2023/04/08 10:51:47;;;;;;;14.05;12.15;;;23.40;33.50;;;;;;5045570;28;20033;-48
2023/04/08 10:54:15;;;;;;;13.57;11.25;;;23.40;33.40;;;;;;5047619;28;20467;-53
2023/04/08 10:57:00;;;;;;;12.55;11.25;;;23.40;33.20;;;;;;5045131;28;20028;-51
2023/04/08 10:59:28;;;;;;;15.68;13.43;;;23.40;33.00;;;;;;5049648;28;20056;-55
2023/04/08 11:01:54;;;;;;;15.82;14.15;;;23.40;33.00;;;;;;5045206;28;20021;-55
2023/04/08 11:04:22;;;;;;;17.42;15.10;;;23.40;33.20;;;;;;5047416;28;20021;-55
2023/04/08 11:06:48;;;;;;;16.67;14.27;;;23.50;33.30;;;;;;5050200;28;20024;-54
2023/04/08 11:09:15;;;;;;;14.82;13.20;;;23.50;33.10;;;;;;5048675;28;20045;-53
2023/04/08 11:11:45;;;;;;;14.13;11.88;;;23.50;33.00;;;;;;5043855;28;20033;-50
2023/04/08 11:14:12;;;;;;;14.60;12.48;;;23.50;32.90;;;;;;5044126;28;20036;-55
2023/04/08 11:16:38;;;;;;;14.20;11.63;;;23.50;32.80;;;;;;5044123;28;20474;-51
2023/04/08 11:19:05;;;;;;;11.85;10.23;;;23.50;32.70;;;;;;5045765;28;20029;-55
2023/04/08 11:21:34;;;;;;;12.68;10.38;;;23.50;32.60;;;;;;5046622;28;20103;-54
2023/04/08 11:24:00;;;;;;;11.50;9.98;;;23.50;32.50;;;;;;5050449;28;20029;-55
2023/04/08 11:26:26;;;;;;;12.07;10.35;;;23.50;32.30;;;;;;5048838;28;20604;-55
2023/04/08 11:28:54;;;;;;;12.52;11.07;;;23.50;32.50;;;;;;5048291;28;20033;-50
2023/04/08 11:31:21;;;;;;;18.75;15.45;;;23.50;32.70;;;;;;5047609;28;20091;-47
2023/04/08 11:33:48;;;;;;;22.63;18.30;;;23.60;32.90;;;;;;5047813;28;21742;-53
2023/04/08 11:36:17;;;;;;;23.27;20.48;;;23.60;33.30;;;;;;5043654;28;20052;-52
2023/04/08 11:38:43;;;;;;;23.40;20.90;;;23.60;33.50;;;;;;5051366;28;20029;-54
2023/04/08 11:41:11;;;;;;;21.80;19.40;;;23.60;33.50;;;;;;5046461;28;20035;-54
2023/04/08 11:43:38;;;;;;;20.35;17.58;;;23.60;33.50;;;;;;5045785;28;20156;-53
2023/04/08 11:46:10;;;;;;;18.58;16.40;;;23.60;33.40;;;;;;5049275;28;20453;-49
2023/04/08 11:48:37;;;;;;;18.50;15.40;;;23.70;33.20;;;;;;5046873;28;20033;-51
2023/04/08 11:51:11;;;;;;;17.38;15.20;;;23.70;33.10;;;;;;5048683;28;20516;-53
2023/04/08 11:53:37;;;;;;;18.80;14.15;;;23.70;33.10;;;;;;5042029;28;20040;-49
2023/04/08 11:56:23;;;;;;;16.13;13.48;;;23.70;32.90;;;;;;5045556;28;20496;-53
2023/04/08 11:58:50;;;;;;;14.48;12.68;;;23.70;32.80;;;;;;5043997;28;20428;-49
2023/04/08 12:01:17;;;;;;;13.93;12.27;;;23.70;32.60;;;;;;5040730;28;20448;-50
2023/04/08 12:04:00;;;;;;;14.13;11.63;;;23.70;32.40;;;;;;5043774;28;20036;-55
2023/04/08 12:06:27;;;;;;;13.10;10.68;;;23.70;32.20;;;;;;5051655;28;20108;-51
2023/04/08 12:08:54;;;;;;;10.90;9.57;;;23.70;32.10;;;;;;5046501;28;20037;-55
2023/04/08 12:11:21;;;;;;;11.07;9.60;;;23.70;32.00;;;;;;5043968;28;20475;-48
2023/04/08 12:13:48;;;;;;;13.88;9.60;;;23.70;31.90;;;;;;5048305;28;20033;-48
2023/04/08 12:16:14;;;;;;;11.10;9.73;;;23.70;31.80;;;;;;5048421;28;20029;-50
2023/04/08 12:18:40;;;;;;;14.80;12.32;;;23.70;31.80;;;;;;5045069;28;20052;-49
2023/04/08 12:21:06;;;;;;;18.35;15.38;;;23.70;32.00;;;;;;5045819;28;20040;-49
2023/04/08 12:23:32;;;;;;;21.33;17.92;;;23.70;32.20;;;;;;5043464;28;20021;-53
2023/04/08 12:25:58;;;;;;;21.45;18.92;;;23.70;32.40;;;;;;5039094;28;20033;-52
2023/04/08 12:28:24;;;;;;;24.52;20.65;;;23.70;32.60;;;;;;5043071;28;20029;-49
2023/04/08 12:30:51;;;;;;;25.23;21.27;;;23.70;32.80;;;;;;5042948;28;20025;-55
2023/04/08 12:33:17;;;;;;;22.45;19.90;;;23.70;32.90;;;;;;5045765;28;20025;-55
2023/04/08 12:35:43;;;;;;;21.50;18.67;;;23.80;33.10;;;;;;5038908;28;20194;-55
2023/04/08 12:38:09;;;;;;;22.05;17.15;;;23.80;33.10;;;;;;5045216;28;20028;-52
2023/04/08 12:40:35;;;;;;;18.83;16.83;;;23.80;33.10;;;;;;5040823;28;20022;-49
2023/04/08 12:43:01;;;;;;;16.98;15.18;;;23.80;33.00;;;;;;5041551;28;20043;-56
2023/04/08 12:45:26;;;;;;;19.77;15.85;;;23.80;32.90;;;;;;5041908;28;20053;-53
2023/04/08 12:47:52;;;;;;;18.92;15.25;;;23.90;32.90;;;;;;5042900;28;20041;-50